createdAt,value
2022-12-12T00:01:17.969Z,15.83
2022-12-12T00:03:48.635Z,14.80
2022-12-12T00:06:20.041Z,15.17
2022-12-12T00:08:51.302Z,15.37
2022-12-12T00:11:22.581Z,15.13
2022-12-12T00:13:54.641Z,14.83
2022-12-12T00:16:25.916Z,15.57
2022-12-12T00:18:56.565Z,13.93
2022-12-12T00:21:30.223Z,14.50
2022-12-12T00:24:00.977Z,14.20
2022-12-12T00:26:33.858Z,14.10
2022-12-12T00:29:05.379Z,15.83
2022-12-12T00:31:35.977Z,14.67
2022-12-12T00:34:06.686Z,15.43
2022-12-12T00:36:37.407Z,14.27
2022-12-12T00:39:12.556Z,15.80
2022-12-12T00:41:40.955Z,14.80
2022-12-12T00:44:13.434Z,14.63
2022-12-12T00:46:44.048Z,15.00
2022-12-12T00:49:14.615Z,14.73
2022-12-12T00:51:45.120Z,13.87
2022-12-12T00:54:15.777Z,14.97
2022-12-12T00:56:46.309Z,13.70
2022-12-12T00:59:16.915Z,12.67
2022-12-12T01:01:47.987Z,14.93
2022-12-12T01:04:18.513Z,13.80
2022-12-12T01:06:49.095Z,14.70
2022-12-12T01:09:19.893Z,15.20
2022-12-12T01:11:50.465Z,14.87
2022-12-12T01:14:22.650Z,15.40
2022-12-12T01:16:53.165Z,14.37
2022-12-12T01:19:23.753Z,15.00
2022-12-12T01:21:54.194Z,16.70
2022-12-12T01:24:24.911Z,13.77
2022-12-12T01:26:55.366Z,14.53
2022-12-12T01:29:27.835Z,16.13
2022-12-12T01:31:58.374Z,14.67
2022-12-12T01:34:28.913Z,14.93
2022-12-12T01:36:59.976Z,16.23
2022-12-12T01:39:30.668Z,15.27
2022-12-12T01:42:01.195Z,15.60
2022-12-12T01:44:43.229Z,16.27
2022-12-12T01:47:16.693Z,15.67
2022-12-12T01:49:59.132Z,14.90
2022-12-12T01:52:35.800Z,15.33
2022-12-12T01:55:08.164Z,16.03
2022-12-12T01:57:41.778Z,15.23
2022-12-12T02:00:13.509Z,16.00
2022-12-12T02:02:46.294Z,14.77
2022-12-12T02:05:25.768Z,14.90
2022-12-12T02:07:58.851Z,15.63
2022-12-12T02:10:29.490Z,16.87
2022-12-12T02:13:05.688Z,15.30
2022-12-12T02:15:51.265Z,16.83
2022-12-12T02:18:33.849Z,16.10
2022-12-12T02:21:26.275Z,14.07
2022-12-12T02:24:26.207Z,14.87
2022-12-12T02:27:08.543Z,14.57
2022-12-12T02:30:10.770Z,15.30
2022-12-12T02:33:08.155Z,15.17
2022-12-12T02:36:02.475Z,15.07
2022-12-12T02:38:48.029Z,15.50
2022-12-12T02:41:41.851Z,15.50
2022-12-12T02:44:37.561Z,16.13
2022-12-12T02:47:19.881Z,16.07
2022-12-12T02:50:11.323Z,16.03
2022-12-12T02:52:44.120Z,16.03
2022-12-12T02:55:15.414Z,15.73
2022-12-12T02:57:46.132Z,15.37
2022-12-12T03:00:19.337Z,14.60
2022-12-12T03:03:25.391Z,16.83
2022-12-12T03:06:19.414Z,15.33
2022-12-12T03:08:55.740Z,15.47
2022-12-12T03:11:38.252Z,16.03
2022-12-12T03:14:14.767Z,15.67
2022-12-12T03:17:12.501Z,15.07
2022-12-12T03:19:48.687Z,14.93
2022-12-12T03:22:38.856Z,16.37
2022-12-12T03:25:12.415Z,15.47
2022-12-12T03:27:48.870Z,16.87
2022-12-12T03:30:21.368Z,15.23
2022-12-12T03:32:58.486Z,16.20
2022-12-12T03:35:35.299Z,16.10
2022-12-12T03:38:14.738Z,15.30
2022-12-12T03:40:51.917Z,16.00
2022-12-12T03:43:34.884Z,16.70
2022-12-12T03:46:15.527Z,15.30
2022-12-12T03:48:52.836Z,16.17
2022-12-12T03:51:26.768Z,15.90
2022-12-12T03:54:09.189Z,14.63
2022-12-12T03:56:54.875Z,16.40
2022-12-12T03:59:31.453Z,15.00
2022-12-12T04:02:10.688Z,15.97
2022-12-12T04:05:03.404Z,15.33
2022-12-12T04:07:36.946Z,14.13
2022-12-12T04:10:27.737Z,16.30
2022-12-12T04:13:30.365Z,16.30
2022-12-12T04:16:18.174Z,15.43
2022-12-12T04:18:54.720Z,15.70
2022-12-12T04:22:03.758Z,16.70
2022-12-12T04:24:51.864Z,16.93
2022-12-12T04:27:40.180Z,14.13
2022-12-12T04:30:13.721Z,15.13
2022-12-12T04:33:08.444Z,16.03
2022-12-12T04:35:43.569Z,14.97
2022-12-12T04:38:22.864Z,15.57
2022-12-12T04:40:56.536Z,14.43
2022-12-12T04:43:39.223Z,13.93
2022-12-12T04:46:12.826Z,14.77
2022-12-12T04:48:55.717Z,15.27
2022-12-12T04:51:29.450Z,14.60
2022-12-12T04:54:03.036Z,28.47
2022-12-12T04:56:36.665Z,12.77
2022-12-12T04:59:09.052Z,14.07
2022-12-12T05:01:59.213Z,13.73
2022-12-12T05:04:49.145Z,13.27
2022-12-12T05:07:39.839Z,12.70
2022-12-12T05:10:10.951Z,12.43
2022-12-12T05:12:46.626Z,9.93
2022-12-12T05:15:22.272Z,11.23
2022-12-12T05:18:05.928Z,10.40
2022-12-12T05:20:36.868Z,9.80
2022-12-12T05:23:07.453Z,9.50
2022-12-12T05:25:38.170Z,9.13
2022-12-12T05:28:10.195Z,10.37
2022-12-12T05:30:41.132Z,9.83
2022-12-12T05:33:11.596Z,8.70
2022-12-12T05:35:42.207Z,9.30
2022-12-12T05:38:12.764Z,9.40
2022-12-12T05:40:43.573Z,9.70
2022-12-12T05:43:14.460Z,8.37
2022-12-12T05:45:45.059Z,8.50
2022-12-12T05:48:19.568Z,8.27
2022-12-12T05:50:49.127Z,8.23
2022-12-12T05:53:19.909Z,7.07
2022-12-12T05:55:54.896Z,6.60
2022-12-12T05:58:27.429Z,7.30
2022-12-12T06:01:03.082Z,5.97
2022-12-12T06:03:31.550Z,7.37
2022-12-12T06:06:03.158Z,6.60
2022-12-12T06:08:34.436Z,7.90
2022-12-12T06:11:09.052Z,6.97
2022-12-12T06:13:40.507Z,7.33
2022-12-12T06:16:17.827Z,7.80
2022-12-12T06:18:53.668Z,7.37
2022-12-12T06:21:24.728Z,7.13
2022-12-12T06:23:57.563Z,7.30
2022-12-12T06:26:28.624Z,7.10
2022-12-12T06:28:59.191Z,5.50
2022-12-12T06:31:30.358Z,6.43
2022-12-12T06:34:01.132Z,6.97
2022-12-12T06:36:31.548Z,5.20
2022-12-12T06:39:02.818Z,7.30
2022-12-12T06:41:33.746Z,7.17
2022-12-12T06:44:04.393Z,6.63
2022-12-12T06:46:35.018Z,6.97
2022-12-12T06:49:07.329Z,6.50
2022-12-12T06:51:42.844Z,7.63
2022-12-12T06:54:16.200Z,6.03
2022-12-12T06:56:48.708Z,7.40
2022-12-12T06:59:18.842Z,7.03
2022-12-12T07:01:49.433Z,7.33
2022-12-12T07:04:20.401Z,7.67
2022-12-12T07:06:51.289Z,7.67
2022-12-12T07:09:21.851Z,8.13
2022-12-12T07:11:52.301Z,7.93
2022-12-12T07:14:22.829Z,7.87
2022-12-12T07:16:53.334Z,7.03
2022-12-12T07:19:23.956Z,7.83
2022-12-12T07:21:55.074Z,8.37
2022-12-12T07:24:25.629Z,7.30
2022-12-12T07:26:56.155Z,8.37
2022-12-12T07:29:26.658Z,6.03
2022-12-12T07:31:57.500Z,7.57
2022-12-12T07:34:29.952Z,6.80
2022-12-12T07:37:03.134Z,7.70
2022-12-12T07:39:34.269Z,6.93
2022-12-12T07:42:06.786Z,7.93
2022-12-12T07:44:38.368Z,6.63
2022-12-12T07:47:09.094Z,7.63
2022-12-12T07:49:39.731Z,8.07
2022-12-12T07:52:10.371Z,8.40
2022-12-12T07:54:40.966Z,8.43
2022-12-12T07:57:11.966Z,7.13
2022-12-12T07:59:43.974Z,8.93
2022-12-12T08:02:14.530Z,7.77
2022-12-12T08:04:45.087Z,7.30
2022-12-12T08:07:15.828Z,7.43
2022-12-12T08:09:46.456Z,7.73
2022-12-12T08:12:17.068Z,6.80
2022-12-12T08:14:47.819Z,6.77
2022-12-12T08:17:18.783Z,5.30
2022-12-12T08:19:51.154Z,7.17
2022-12-12T08:22:22.131Z,7.33
2022-12-12T08:24:52.528Z,6.10
2022-12-12T08:27:24.693Z,7.33
2022-12-12T08:29:55.609Z,6.43
2022-12-12T08:32:26.207Z,6.03
2022-12-12T08:35:00.038Z,5.90
2022-12-12T08:37:30.899Z,7.20
2022-12-12T08:40:01.548Z,5.27
2022-12-12T08:42:32.136Z,7.03
2022-12-12T08:45:02.706Z,4.50
2022-12-12T08:47:33.170Z,6.63
2022-12-12T08:50:04.726Z,6.93
2022-12-12T08:52:35.291Z,6.20
2022-12-12T08:55:06.014Z,5.90
2022-12-12T08:57:36.876Z,6.27
2022-12-12T09:00:08.409Z,6.50
2022-12-12T09:02:41.464Z,6.23
2022-12-12T09:05:12.813Z,4.77
2022-12-12T09:07:44.688Z,5.30
2022-12-12T09:10:16.418Z,5.80
2022-12-12T09:12:48.604Z,5.30
2022-12-12T09:15:19.588Z,5.87
2022-12-12T09:17:53.418Z,6.30
2022-12-12T09:20:23.949Z,5.77
2022-12-12T09:22:54.575Z,6.23
2022-12-12T09:25:26.012Z,5.37
2022-12-12T09:27:58.049Z,5.90
2022-12-12T09:30:38.633Z,6.23
2022-12-12T09:33:10.748Z,5.87
2022-12-12T09:35:41.248Z,5.87
2022-12-12T09:38:14.801Z,4.63
2022-12-12T09:40:58.968Z,4.90
2022-12-12T09:43:33.942Z,5.77
2022-12-12T09:46:07.636Z,5.43
2022-12-12T09:48:57.223Z,6.10
2022-12-12T09:51:28.100Z,5.90
2022-12-12T09:53:59.180Z,5.37
2022-12-12T09:56:46.214Z,5.03
2022-12-12T09:59:20.508Z,5.10
2022-12-12T10:02:04.339Z,4.67
2022-12-12T10:04:49.418Z,4.60
2022-12-12T10:07:40.078Z,5.00
2022-12-12T10:10:33.102Z,5.30
2022-12-12T10:13:07.967Z,3.93
2022-12-12T10:15:41.772Z,5.47
2022-12-12T10:18:18.861Z,4.83
2022-12-12T10:20:55.606Z,3.87
2022-12-12T10:23:41.842Z,4.83
2022-12-12T10:26:19.101Z,5.23
2022-12-12T10:28:58.900Z,4.93
2022-12-12T10:31:49.215Z,4.87
2022-12-12T10:34:24.402Z,4.83
2022-12-12T10:37:05.050Z,4.23
2022-12-12T10:39:44.715Z,4.50
2022-12-12T10:42:43.516Z,5.03
2022-12-12T10:45:36.329Z,4.57
2022-12-12T10:48:07.299Z,4.83
2022-12-12T10:50:53.054Z,4.50
2022-12-12T10:53:26.931Z,4.90
2022-12-12T10:56:12.375Z,4.67
2022-12-12T10:58:49.362Z,4.60
2022-12-12T11:01:44.856Z,5.13
2022-12-12T11:03:57.341Z,5.90
2022-12-12T11:06:49.010Z,7.10
2022-12-12T11:09:28.234Z,7.20
2022-12-12T11:12:06.908Z,6.63
2022-12-12T11:14:40.481Z,6.27
2022-12-12T11:17:28.881Z,6.77
2022-12-12T11:20:02.431Z,6.60
2022-12-12T11:22:34.500Z,6.27
2022-12-12T11:25:05.791Z,6.50
2022-12-12T11:27:40.719Z,6.33
2022-12-12T11:30:29.209Z,6.10
2022-12-12T11:33:00.912Z,6.30
2022-12-12T11:35:39.995Z,6.70
2022-12-12T11:38:27.148Z,7.83
2022-12-12T11:41:06.143Z,5.50
2022-12-12T11:43:39.154Z,6.83
2022-12-12T11:46:29.048Z,5.30
2022-12-12T11:49:07.633Z,6.20
2022-12-12T11:51:40.822Z,5.30
2022-12-12T11:54:19.294Z,6.53
2022-12-12T11:57:11.905Z,6.83
2022-12-12T12:00:06.433Z,6.73
2022-12-12T12:03:13.955Z,7.60
2022-12-12T12:06:12.620Z,7.03
2022-12-12T12:08:59.033Z,7.17
2022-12-12T12:11:35.257Z,7.67
2022-12-12T12:14:18.659Z,5.50
2022-12-12T12:17:20.814Z,6.20
2022-12-12T12:20:07.685Z,6.80
2022-12-12T12:23:03.554Z,5.30
2022-12-12T12:25:43.046Z,5.80
2022-12-12T12:28:19.118Z,6.10
2022-12-12T12:31:24.277Z,6.40
2022-12-12T12:34:24.597Z,5.77
2022-12-12T12:37:04.543Z,5.27
2022-12-12T12:39:53.941Z,5.97
2022-12-12T12:42:27.607Z,5.77
2022-12-12T12:45:24.677Z,5.33
2022-12-12T12:48:10.521Z,6.20
2022-12-12T12:50:46.441Z,5.33
2022-12-12T12:53:20.021Z,5.50
2022-12-12T12:55:58.523Z,4.50
2022-12-12T12:58:37.431Z,4.10
2022-12-12T13:01:14.071Z,4.47
2022-12-12T13:04:06.728Z,4.63
2022-12-12T13:07:05.988Z,5.53
2022-12-12T13:10:00.911Z,5.30
2022-12-12T13:12:40.371Z,5.73
2022-12-12T13:15:31.110Z,5.47
2022-12-12T13:18:13.447Z,4.57
2022-12-12T13:20:47.287Z,5.77
2022-12-12T13:23:47.798Z,5.80
2022-12-12T13:26:27.340Z,6.37
2022-12-12T13:29:07.240Z,5.67
2022-12-12T13:31:43.414Z,5.97
2022-12-12T13:34:20.031Z,6.43
2022-12-12T13:36:56.086Z,6.20
2022-12-12T13:39:32.698Z,6.10
2022-12-12T13:42:11.947Z,6.80
2022-12-12T13:44:50.516Z,5.50
2022-12-12T13:47:28.096Z,5.47
2022-12-12T13:50:14.085Z,5.40
2022-12-12T13:52:45.849Z,5.47
2022-12-12T13:55:29.579Z,5.43
2022-12-12T13:58:04.842Z,6.77
2022-12-12T14:00:37.817Z,6.27
2022-12-12T14:03:14.834Z,5.17
2022-12-12T14:05:49.567Z,6.57
2022-12-12T14:08:26.280Z,7.23
2022-12-12T14:10:59.898Z,7.17
2022-12-12T14:13:50.313Z,7.67
2022-12-12T14:16:24.071Z,7.10
2022-12-12T14:18:58.473Z,8.07
2022-12-12T14:21:53.225Z,8.27
2022-12-12T14:24:44.520Z,8.67
2022-12-12T14:27:12.701Z,8.30
2022-12-12T14:29:45.450Z,8.37
2022-12-12T14:32:26.447Z,9.00
2022-12-12T14:35:13.189Z,8.53
2022-12-12T14:38:01.606Z,9.47
2022-12-12T14:40:38.065Z,8.90
2022-12-12T14:43:22.167Z,8.03
2022-12-12T14:45:55.965Z,8.67
2022-12-12T14:48:33.097Z,8.93
2022-12-12T14:51:29.302Z,8.63
2022-12-12T14:53:58.115Z,9.87
2022-12-12T14:56:52.401Z,9.43
2022-12-12T14:59:24.492Z,10.23
2022-12-12T15:02:01.148Z,9.40
2022-12-12T15:04:34.661Z,8.60
2022-12-12T15:07:29.160Z,9.40
2022-12-12T15:10:01.345Z,9.07
2022-12-12T15:12:39.221Z,8.93
2022-12-12T15:15:12.839Z,8.00
2022-12-12T15:17:50.459Z,9.40
2022-12-12T15:20:25.153Z,9.13
2022-12-12T15:23:03.671Z,8.77
2022-12-12T15:25:37.552Z,8.77
2022-12-12T15:28:12.289Z,8.73
2022-12-12T15:30:44.773Z,9.70
2022-12-12T15:33:22.309Z,8.83
2022-12-12T15:36:01.150Z,9.43
2022-12-12T15:38:28.926Z,9.20
2022-12-12T15:41:01.920Z,8.80
2022-12-12T15:43:36.087Z,8.77
2022-12-12T15:46:17.363Z,8.53
2022-12-12T15:48:49.611Z,8.00
2022-12-12T15:51:25.325Z,8.13
2022-12-12T15:53:57.944Z,8.37
2022-12-12T15:56:30.067Z,8.17
2022-12-12T15:59:09.276Z,9.10
2022-12-12T16:01:40.118Z,9.63
2022-12-12T16:04:15.575Z,7.93
2022-12-12T16:06:48.475Z,7.37
2022-12-12T16:09:23.121Z,8.47
2022-12-12T16:11:58.386Z,8.70
2022-12-12T16:14:41.174Z,8.20
2022-12-12T16:17:23.435Z,8.43
2022-12-12T16:20:00.653Z,8.23
2022-12-12T16:22:49.681Z,8.53
2022-12-12T16:25:37.401Z,8.23
2022-12-12T16:28:14.807Z,8.53
2022-12-12T16:30:49.909Z,9.87
2022-12-12T16:33:32.544Z,9.50
2022-12-12T16:36:11.804Z,10.10
2022-12-12T16:38:43.214Z,8.93
2022-12-12T16:41:20.732Z,8.87
2022-12-12T16:43:52.877Z,8.60
2022-12-12T16:46:28.203Z,8.60
2022-12-12T16:49:00.745Z,8.43
2022-12-12T16:51:37.628Z,7.97
2022-12-12T16:54:16.081Z,8.20
2022-12-12T16:56:48.245Z,6.27
2022-12-12T16:59:20.295Z,8.90
2022-12-12T17:01:57.354Z,8.53
2022-12-12T17:04:25.323Z,9.03
2022-12-12T17:06:58.513Z,10.17
2022-12-12T17:09:30.254Z,10.23
2022-12-12T17:12:01.248Z,9.87
2022-12-12T17:14:33.401Z,8.97
2022-12-12T17:17:05.029Z,8.33
2022-12-12T17:19:35.684Z,8.37
2022-12-12T17:22:06.979Z,8.63
2022-12-12T17:24:37.477Z,8.53
2022-12-12T17:27:09.644Z,7.80
2022-12-12T17:29:40.203Z,8.27
2022-12-12T17:32:10.976Z,8.00
2022-12-12T17:34:41.515Z,7.77
2022-12-12T17:37:12.447Z,7.90
2022-12-12T17:39:44.405Z,7.33
2022-12-12T17:42:16.099Z,7.33
2022-12-12T17:44:46.924Z,7.33
2022-12-12T17:47:17.630Z,6.30
2022-12-12T17:49:49.110Z,6.30
2022-12-12T17:52:20.076Z,6.70
2022-12-12T17:55:54.054Z,5.87
2022-12-12T17:57:25.458Z,6.73
2022-12-12T17:59:56.521Z,6.47
2022-12-12T18:02:27.532Z,6.70
2022-12-12T18:04:58.092Z,6.83
2022-12-12T18:07:28.934Z,6.70
2022-12-12T18:10:06.339Z,6.70
2022-12-12T18:12:35.951Z,6.33
2022-12-12T18:15:07.082Z,6.13
2022-12-12T18:17:40.328Z,6.97
2022-12-12T18:20:14.438Z,5.90
2022-12-12T18:22:46.219Z,6.77
2022-12-12T18:25:16.631Z,6.27
2022-12-12T18:27:47.106Z,6.23
2022-12-12T18:30:20.639Z,6.23
2022-12-12T18:32:56.104Z,6.07
2022-12-12T18:35:26.044Z,5.80
2022-12-12T18:37:58.119Z,6.73
2022-12-12T18:40:29.237Z,6.23
2022-12-12T18:43:02.054Z,7.07
2022-12-12T18:45:34.173Z,5.97
2022-12-12T18:48:05.408Z,6.03
2022-12-12T18:50:36.239Z,5.90
2022-12-12T18:53:07.620Z,6.50
2022-12-12T18:55:43.135Z,5.83
2022-12-12T18:58:15.303Z,6.53
2022-12-12T19:00:46.109Z,6.77
2022-12-12T19:03:17.187Z,6.00
2022-12-12T19:05:47.880Z,6.13
2022-12-12T19:08:20.100Z,6.13
2022-12-12T19:10:50.660Z,6.47
2022-12-12T19:13:21.183Z,6.20
2022-12-12T19:15:52.237Z,7.03
2022-12-12T19:18:22.787Z,6.93
2022-12-12T19:20:54.514Z,7.97
2022-12-12T19:23:25.103Z,7.20
2022-12-12T19:25:56.515Z,8.00
2022-12-12T19:28:30.273Z,7.23
2022-12-12T19:31:03.346Z,7.17
2022-12-12T19:33:34.010Z,8.57
2022-12-12T19:36:16.023Z,7.33
2022-12-12T19:38:47.859Z,7.00
2022-12-12T19:41:20.684Z,7.80
2022-12-12T19:43:53.874Z,7.13
2022-12-12T19:46:26.847Z,7.50
2022-12-12T19:49:00.666Z,7.87
2022-12-12T19:51:39.405Z,6.80
2022-12-12T19:54:12.784Z,7.50
2022-12-12T19:56:43.558Z,7.27
2022-12-12T19:59:16.444Z,7.37
2022-12-12T20:01:49.284Z,7.17
2022-12-12T20:04:23.500Z,8.17
2022-12-12T20:06:54.010Z,7.50
2022-12-12T20:09:27.429Z,7.70
2022-12-12T20:12:02.922Z,7.90
2022-12-12T20:14:35.601Z,7.90
2022-12-12T20:17:06.438Z,8.10
2022-12-12T20:19:38.484Z,7.90
2022-12-12T20:22:09.261Z,8.30
2022-12-12T20:24:42.545Z,8.63
2022-12-12T20:27:15.501Z,8.80
2022-12-12T20:29:47.526Z,7.73
2022-12-12T20:32:20.001Z,8.70
2022-12-12T20:34:51.647Z,9.60
2022-12-12T20:37:23.055Z,9.90
2022-12-12T20:39:57.954Z,10.80
2022-12-12T20:42:29.659Z,11.13
2022-12-12T20:45:01.816Z,11.33
2022-12-12T20:47:33.456Z,12.77
2022-12-12T20:50:06.626Z,12.90
2022-12-12T20:52:37.111Z,13.83
2022-12-12T20:55:09.994Z,15.10
2022-12-12T20:57:43.948Z,13.90
2022-12-12T21:00:16.821Z,13.53
2022-12-12T21:02:47.396Z,13.40
2022-12-12T21:05:18.095Z,14.03
2022-12-12T21:07:49.064Z,13.83
2022-12-12T21:10:21.115Z,13.23
2022-12-12T21:12:51.829Z,13.93
2022-12-12T21:15:22.602Z,14.27
2022-12-12T21:17:53.316Z,14.03
2022-12-12T21:20:23.809Z,13.73
2022-12-12T21:22:56.978Z,14.43
2022-12-12T21:25:28.003Z,13.73
2022-12-12T21:27:59.109Z,13.80
2022-12-12T21:30:29.783Z,13.83
2022-12-12T21:33:02.502Z,12.80
2022-12-12T21:35:37.142Z,11.17
2022-12-12T21:38:08.822Z,9.17
2022-12-12T21:40:39.447Z,10.00
2022-12-12T21:43:11.673Z,9.07
2022-12-12T21:45:42.307Z,10.30
2022-12-12T21:48:14.791Z,9.17
2022-12-12T21:50:47.019Z,9.80
2022-12-12T21:53:35.503Z,9.93
2022-12-12T21:56:11.302Z,8.77
2022-12-12T21:58:44.621Z,9.53
2022-12-12T22:01:22.646Z,9.03
2022-12-12T22:03:56.305Z,9.83
2022-12-12T22:06:41.617Z,9.53
2022-12-12T22:09:12.667Z,8.77
2022-12-12T22:11:49.186Z,9.93
2022-12-12T22:14:20.906Z,9.13
2022-12-12T22:16:51.718Z,8.87
2022-12-12T22:19:22.444Z,9.40
2022-12-12T22:21:54.801Z,8.63
2022-12-12T22:24:26.853Z,8.93
2022-12-12T22:26:57.396Z,9.63
2022-12-12T22:29:28.133Z,9.00
2022-12-12T22:32:01.441Z,8.83
2022-12-12T22:34:32.853Z,9.20
2022-12-12T22:37:03.388Z,8.90
2022-12-12T22:39:35.467Z,8.87
2022-12-12T22:42:05.878Z,9.43
2022-12-12T22:44:36.421Z,12.20
2022-12-12T22:47:08.614Z,10.70
2022-12-12T22:49:39.388Z,10.47
2022-12-12T22:52:10.043Z,11.17
2022-12-12T22:54:40.668Z,10.17
2022-12-12T22:57:13.185Z,9.27
2022-12-12T22:59:44.297Z,10.20
2022-12-12T23:02:23.104Z,10.17
2022-12-12T23:04:49.322Z,10.97
2022-12-12T23:07:20.145Z,11.40
2022-12-12T23:09:53.346Z,11.17
2022-12-12T23:12:25.685Z,10.90
2022-12-12T23:14:58.041Z,10.33
2022-12-12T23:17:28.677Z,10.87
2022-12-12T23:20:02.142Z,11.10
2022-12-12T23:22:34.317Z,11.10
2022-12-12T23:25:07.012Z,9.83
2022-12-12T23:27:37.737Z,10.13
2022-12-12T23:30:09.343Z,9.93
2022-12-12T23:32:41.560Z,10.17
2022-12-12T23:35:14.379Z,10.30
2022-12-12T23:37:45.038Z,10.80
2022-12-12T23:40:19.412Z,10.50
2022-12-12T23:42:51.545Z,9.90
2022-12-12T23:45:23.557Z,8.57
2022-12-12T23:47:54.435Z,10.27
2022-12-12T23:50:26.165Z,10.30
2022-12-12T23:52:56.722Z,11.07
2022-12-12T23:55:27.444Z,11.60
2022-12-12T23:57:58.062Z,10.80
